• Join FlightAware (Why Join?)
  • Login
  • US Flag 
11:49PM EDT


 

Airport Tracker/Info


-or-


 

Live Flight TrackerFlight Track Log ✈ RPA3228 ✈ 20-Apr-2013 ✈ KDCA - KBTV

Flight Track Log - Related Links

Times and Time Zones

All times are in EDT time to prevent confusion due to time zone crossing. See the RPA3228 flight status page for this flight to view local times or setup timezone preferences in your user account.

Time Position Orientation Groundspeed Altitude Reporting Facility
EDT Latitude Longitude Course Direction KTS MPH feet Rate Location/Type
10:25AM 38.9000 -77.0667 83° East 172 198 2,500  Level Potomac TRACON
10:26AM 38.9713 -76.6740 57° Northeast  Level FlightAware Approximate
10:26AM 38.9333 -77.1333 303° West 232 267 5,000  Level Potomac TRACON
10:27AM 39.0204 -76.5556 67° East  Level FlightAware Approximate
10:28AM 39.0662 -76.4346 63° Northeast  Level FlightAware Approximate
10:28AM 39.0403 -77.0319 36° Northeast 232 267 10,800  Level Washington Center
10:29AM 39.1167 -76.3166 90° East  Level FlightAware Approximate
10:29AM 39.0583 -76.8961 80° East 284 327 13,200  Level Washington Center
10:30AM 39.1518 -76.1988 83° East  Level FlightAware Approximate
10:30AM 39.0786 -76.7547 79° East 351 404 15,800  Level Washington Center
10:31AM 39.0675 -76.6208 96° East 377 434 18,600 2,580 Climbing Washington Center
10:32AM 39.0183 -76.4972 117° Southeast 367 422 21,000 1,620 Climbing Washington Center
10:33AM 38.9797 -76.3553 109° East 374 430 21,900 720 Climbing Washington Center
10:34AM 39.0347 -76.1956 66° East 419 482 22,500 540 Climbing Washington Center
10:35AM 39.1147 -76.0492 55° Northeast 483 556 23,000 240 Climbing Washington Center
10:36AM 39.1944 -75.8889 57° Northeast 505 581 23,000 300 Level Washington Center
10:37AM 39.2967 -75.7472 47° Northeast 526 605 23,700 960 Climbing Washington Center
10:38AM 39.4053 -75.6078 45° Northeast 531 611 25,000 600 Climbing Washington Center
10:39AM 39.5133 -75.4678 45° Northeast 543 625 25,000  Level Washington Center
10:40AM 39.6217 -75.3247 45° Northeast 548 631 25,000  Level Washington Center
10:42AM 39.7686 -75.1192 47° Northeast 531 611 25,000  Level New York Center
10:43AM 39.8633 -74.9789 49° Northeast 526 605 25,000  Level New York Center
10:44AM 39.9619 -74.8414 47° Northeast 521 600 25,000  Level New York Center
10:45AM 40.0583 -74.7033 48° Northeast 521 600 25,000  Level New York Center
10:46AM 40.1656 -74.5517 47° Northeast 521 600 25,000  Level New York Center
10:47AM 40.2631 -74.4319 43° Northeast 521 600 25,000  Level New York Center
10:48AM 40.3750 -74.3128 39° Northeast 521 600 25,000  Level New York Center
10:49AM 40.4872 -74.1903 40° Northeast 521 600 25,000  Level New York Center
10:50AM 40.6011 -74.0647 40° Northeast 521 600 25,000  Level New York Center
10:52AM 40.8267 -73.8333 38° Northeast 540 621 25,000  Level Boston Center
10:53AM 40.9647 -73.7897 13° North 501 577 25,000  Level Boston Center
10:54AM 41.1022 -73.7953 358° North 492 566 25,000  Level Boston Center
10:55AM 41.2375 -73.8036 357° North 482 555 25,000  Level Boston Center
10:56AM 41.3731 -73.8094 358° North 482 555 25,000  Level Boston Center
10:57AM 41.5106 -73.8150 358° North 477 549 25,000  Level Boston Center
10:58AM 41.6458 -73.8236 357° North 477 549 25,000  Level Boston Center
10:59AM 41.7856 -73.8211 North 477 549 25,000  Level Boston Center
11:00AM 41.9333 -73.8214 360° North 477 549 25,000  Level Boston Center
11:01AM 42.0753 -73.8189 North 488 562 25,000  Level Boston Center
11:02AM 42.2128 -73.8136 North 493 567 25,000  Level Boston Center
11:03AM 42.3544 -73.8139 360° North 498 573 25,000  Level Boston Center
11:04AM 42.4942 -73.8114 North 498 573 25,000  Level Boston Center
11:05AM 42.6422 -73.8089 North 491 565 25,000  Level Boston Center
11:06AM 42.7842 -73.7894 North 491 565 25,000  Level Boston Center
11:07AM 42.9267 -73.7386 15° North 517 595 25,000  Level Boston Center
11:08AM 43.0667 -73.6878 15° North 517 595 25,000  Level Boston Center
11:09AM 43.1922 -73.6361 17° North 517 595 25,000 -300 Level Boston Center
11:10AM 43.3325 -73.5875 14° North 517 595 24,400 -540 Descending Boston Center
11:11AM 43.4664 -73.5328 17° North 505 581 24,000 -540 Descending Boston Center
11:12AM 43.6003 -73.4836 15° North 500 575 23,400 -1,200 Descending Boston Center
11:13AM 43.7403 -73.4372 13° North 482 555 21,600 -2,100 Descending Boston Center
11:14AM 43.8656 -73.3875 16° North 474 545 19,300 -2,580 Descending Boston Center
11:15AM 43.9847 -73.3403 16° North 456 525 16,500 -2,400 Descending Boston Center
11:16AM 44.0872 -73.3014 15° North 435 501 14,500 -1,500 Descending Boston Center
11:17AM 44.1669 -73.2303 33° Northeast 357 411 13,600 -1,200 Descending Boston Center
11:18AM 44.2011 -73.1178 67° East 309 356 12,200 -1,500 Descending Boston Center
11:19AM 44.2225 -73.0167 74° East 283 326 10,700 -1,740 Descending Boston Center
11:20AM 44.2458 -72.9183 72° East 261 300 8,800 -1,980 Descending Boston Center
11:21AM 44.3061 -72.9186 360° North 175 201 6,800 -1,800 Descending Boston Center
11:22AM 44.3497 -72.9567 328° Northwest 160 184 5,200 -1,620 Descending Boston Center